sensor_id;sensor_type;location;lat;lon;timestamp;P1;durP1;ratioP1;P2;durP2;ratioP2
3633;SDS011;1833;42.718;23.270;2024-01-06T03:36:03;74.90;;;49.30;;
3633;SDS011;1833;42.718;23.270;2024-01-06T03:38:33;59.03;;;45.60;;
3633;SDS011;1833;42.718;23.270;2024-01-06T03:41:02;57.87;;;41.10;;
3633;SDS011;1833;42.718;23.270;2024-01-06T03:49:03;67.17;;;46.10;;
3633;SDS011;1833;42.718;23.270;2024-01-06T03:52:06;60.87;;;47.97;;
3633;SDS011;1833;42.718;23.270;2024-01-06T03:54:43;66.20;;;47.27;;
3633;SDS011;1833;42.718;23.270;2024-01-06T03:57:14;59.97;;;47.00;;
3633;SDS011;1833;42.718;23.270;2024-01-06T03:59:50;66.40;;;50.60;;
3633;SDS011;1833;42.718;23.270;2024-01-06T04:02:20;72.47;;;51.00;;
3633;SDS011;1833;42.718;23.270;2024-01-06T04:04:56;76.00;;;51.90;;
3633;SDS011;1833;42.718;23.270;2024-01-06T04:07:45;86.03;;;55.57;;
3633;SDS011;1833;42.718;23.270;2024-01-06T04:10:19;81.07;;;54.50;;
3633;SDS011;1833;42.718;23.270;2024-01-06T04:12:56;95.73;;;57.40;;
3633;SDS011;1833;42.718;23.270;2024-01-06T04:15:24;79.93;;;55.13;;
3633;SDS011;1833;42.718;23.270;2024-01-06T04:18:11;84.70;;;57.03;;
3633;SDS011;1833;42.718;23.270;2024-01-06T04:20:49;89.03;;;61.67;;
3633;SDS011;1833;42.718;23.270;2024-01-06T04:23:22;82.27;;;57.40;;
3633;SDS011;1833;42.718;23.270;2024-01-06T04:26:10;90.80;;;60.30;;
3633;SDS011;1833;42.718;23.270;2024-01-06T04:28:43;89.70;;;59.47;;
3633;SDS011;1833;42.718;23.270;2024-01-06T04:31:15;89.53;;;59.13;;
3633;SDS011;1833;42.718;23.270;2024-01-06T04:33:44;84.73;;;57.23;;
3633;SDS011;1833;42.718;23.270;2024-01-06T04:36:30;79.27;;;57.23;;
3633;SDS011;1833;42.718;23.270;2024-01-06T04:39:20;83.57;;;57.03;;
3633;SDS011;1833;42.718;23.270;2024-01-06T04:41:50;77.03;;;54.30;;
3633;SDS011;1833;42.718;23.270;2024-01-06T04:49:44;84.80;;;57.60;;
3633;SDS011;1833;42.718;23.270;2024-01-06T04:52:52;90.03;;;56.97;;
3633;SDS011;1833;42.718;23.270;2024-01-06T04:55:31;82.00;;;51.20;;
3633;SDS011;1833;42.718;23.270;2024-01-06T04:57:59;83.53;;;54.90;;
3633;SDS011;1833;42.718;23.270;2024-01-06T05:46:42;64.87;;;44.27;;
3633;SDS011;1833;42.718;23.270;2024-01-06T05:49:25;59.43;;;43.07;;
3633;SDS011;1833;42.718;23.270;2024-01-06T05:52:12;56.43;;;41.27;;
3633;SDS011;1833;42.718;23.270;2024-01-06T05:55:02;51.53;;;37.60;;
3633;SDS011;1833;42.718;23.270;2024-01-06T05:57:32;47.73;;;35.00;;
3633;SDS011;1833;42.718;23.270;2024-01-06T06:00:08;39.63;;;34.00;;
3633;SDS011;1833;42.718;23.270;2024-01-06T06:02:45;40.90;;;34.30;;
3633;SDS011;1833;42.718;23.270;2024-01-06T06:05:21;42.67;;;34.47;;
3633;SDS011;1833;42.718;23.270;2024-01-06T06:08:04;39.27;;;35.03;;
3633;SDS011;1833;42.718;23.270;2024-01-06T07:02:51;96.13;;;66.83;;
3633;SDS011;1833;42.718;23.270;2024-01-06T07:05:19;109.60;;;66.40;;
3633;SDS011;1833;42.718;23.270;2024-01-06T07:10:22;92.10;;;64.80;;
3633;SDS011;1833;42.718;23.270;2024-01-06T07:12:49;94.10;;;62.40;;
3633;SDS011;1833;42.718;23.270;2024-01-06T07:15:17;102.57;;;63.10;;
3633;SDS011;1833;42.718;23.270;2024-01-06T07:17:48;91.87;;;59.60;;
3633;SDS011;1833;42.718;23.270;2024-01-06T07:20:17;88.67;;;59.97;;
3633;SDS011;1833;42.718;23.270;2024-01-06T07:22:45;98.70;;;56.10;;
3633;SDS011;1833;42.718;23.270;2024-01-06T07:25:18;88.03;;;56.40;;
3633;SDS011;1833;42.718;23.270;2024-01-06T07:27:45;82.27;;;55.20;;
3633;SDS011;1833;42.718;23.270;2024-01-06T07:30:16;68.30;;;50.37;;
3633;SDS011;1833;42.718;23.270;2024-01-06T07:32:44;73.97;;;52.97;;
3633;SDS011;1833;42.718;23.270;2024-01-06T07:35:12;64.07;;;53.00;;
3633;SDS011;1833;42.718;23.270;2024-01-06T07:37:42;78.07;;;60.17;;
3633;SDS011;1833;42.718;23.270;2024-01-06T07:40:11;97.40;;;62.60;;
3633;SDS011;1833;42.718;23.270;2024-01-06T07:42:45;93.40;;;59.77;;
3633;SDS011;1833;42.718;23.270;2024-01-06T07:45:19;126.37;;;73.93;;
3633;SDS011;1833;42.718;23.270;2024-01-06T07:47:48;122.60;;;73.23;;
3633;SDS011;1833;42.718;23.270;2024-01-06T07:50:18;115.80;;;75.10;;
3633;SDS011;1833;42.718;23.270;2024-01-06T07:52:58;89.47;;;59.90;;
3633;SDS011;1833;42.718;23.270;2024-01-06T07:55:28;79.97;;;53.90;;
3633;SDS011;1833;42.718;23.270;2024-01-06T07:57:58;82.43;;;56.60;;
3633;SDS011;1833;42.718;23.270;2024-01-06T08:00:29;79.03;;;53.37;;
3633;SDS011;1833;42.718;23.270;2024-01-06T08:02:58;70.80;;;51.60;;
3633;SDS011;1833;42.718;23.270;2024-01-06T08:05:46;75.60;;;53.67;;
3633;SDS011;1833;42.718;23.270;2024-01-06T08:08:31;101.30;;;62.70;;
3633;SDS011;1833;42.718;23.270;2024-01-06T08:10:59;84.87;;;59.03;;
3633;SDS011;1833;42.718;23.270;2024-01-06T08:13:28;84.60;;;58.40;;
3633;SDS011;1833;42.718;23.270;2024-01-06T08:15:56;83.73;;;54.63;;
3633;SDS011;1833;42.718;23.270;2024-01-06T08:18:24;84.17;;;53.60;;
3633;SDS011;1833;42.718;23.270;2024-01-06T08:20:53;79.03;;;52.47;;
3633;SDS011;1833;42.718;23.270;2024-01-06T08:23:20;76.93;;;52.67;;
3633;SDS011;1833;42.718;23.270;2024-01-06T08:25:50;96.87;;;55.87;;
3633;SDS011;1833;42.718;23.270;2024-01-06T08:28:21;88.97;;;55.60;;
3633;SDS011;1833;42.718;23.270;2024-01-06T08:30:49;82.83;;;59.63;;
3633;SDS011;1833;42.718;23.270;2024-01-06T08:33:17;86.20;;;57.00;;
3633;SDS011;1833;42.718;23.270;2024-01-06T08:35:46;81.87;;;60.53;;
3633;SDS011;1833;42.718;23.270;2024-01-06T08:38:14;84.33;;;53.33;;
3633;SDS011;1833;42.718;23.270;2024-01-06T08:40:41;103.50;;;66.17;;
3633;SDS011;1833;42.718;23.270;2024-01-06T08:43:15;86.13;;;61.20;;
3633;SDS011;1833;42.718;23.270;2024-01-06T08:45:49;85.73;;;57.50;;
3633;SDS011;1833;42.718;23.270;2024-01-06T08:48:19;79.13;;;56.73;;
3633;SDS011;1833;42.718;23.270;2024-01-06T08:50:58;82.07;;;56.20;;
3633;SDS011;1833;42.718;23.270;2024-01-06T08:53:27;70.00;;;54.47;;
3633;SDS011;1833;42.718;23.270;2024-01-06T08:55:55;74.67;;;56.20;;
3633;SDS011;1833;42.718;23.270;2024-01-06T08:58:24;88.40;;;57.27;;
3633;SDS011;1833;42.718;23.270;2024-01-06T09:00:52;81.47;;;57.00;;
3633;SDS011;1833;42.718;23.270;2024-01-06T09:03:20;68.87;;;53.53;;
3633;SDS011;1833;42.718;23.270;2024-01-06T09:05:51;103.43;;;61.60;;
3633;SDS011;1833;42.718;23.270;2024-01-06T09:08:19;69.50;;;51.97;;
3633;SDS011;1833;42.718;23.270;2024-01-06T09:10:55;79.67;;;55.57;;
3633;SDS011;1833;42.718;23.270;2024-01-06T09:13:27;104.73;;;57.83;;
3633;SDS011;1833;42.718;23.270;2024-01-06T09:15:58;81.93;;;58.60;;
3633;SDS011;1833;42.718;23.270;2024-01-06T09:18:27;84.00;;;57.40;;
3633;SDS011;1833;42.718;23.270;2024-01-06T09:20:58;73.80;;;56.90;;
3633;SDS011;1833;42.718;23.270;2024-01-06T09:23:41;73.70;;;53.13;;
3633;SDS011;1833;42.718;23.270;2024-01-06T09:29:35;53.73;;;45.37;;
3633;SDS011;1833;42.718;23.270;2024-01-06T09:32:24;59.77;;;45.43;;
3633;SDS011;1833;42.718;23.270;2024-01-06T09:34:59;46.67;;;39.70;;
3633;SDS011;1833;42.718;23.270;2024-01-06T09:37:27;41.03;;;36.70;;
3633;SDS011;1833;42.718;23.270;2024-01-06T09:40:08;38.40;;;34.70;;
3633;SDS011;1833;42.718;23.270;2024-01-06T09:42:59;36.37;;;32.63;;
3633;SDS011;1833;42.718;23.270;2024-01-06T09:48:39;54.07;;;35.70;;
3633;SDS011;1833;42.718;23.270;2024-01-06T09:51:14;38.77;;;34.67;;
3633;SDS011;1833;42.718;23.270;2024-01-06T09:54:04;39.63;;;35.57;;
3633;SDS011;1833;42.718;23.270;2024-01-06T09:56:58;39.27;;;34.17;;
3633;SDS011;1833;42.718;23.270;2024-01-06T09:59:52;43.70;;;36.90;;
3633;SDS011;1833;42.718;23.270;2024-01-06T10:02:55;47.17;;;37.20;;
3633;SDS011;1833;42.718;23.270;2024-01-06T10:08:16;46.07;;;34.57;;
3633;SDS011;1833;42.718;23.270;2024-01-06T10:14:03;37.27;;;33.27;;
3633;SDS011;1833;42.718;23.270;2024-01-06T10:17:05;36.70;;;32.83;;
3633;SDS011;1833;42.718;23.270;2024-01-06T10:25:12;45.77;;;32.53;;
3633;SDS011;1833;42.718;23.270;2024-01-06T10:27:43;37.73;;;33.83;;
3633;SDS011;1833;42.718;23.270;2024-01-06T10:30:25;36.57;;;32.70;;
3633;SDS011;1833;42.718;23.270;2024-01-06T10:33:20;38.60;;;33.10;;
3633;SDS011;1833;42.718;23.270;2024-01-06T10:35:50;37.20;;;33.20;;
3633;SDS011;1833;42.718;23.270;2024-01-06T10:38:22;36.53;;;32.80;;
3633;SDS011;1833;42.718;23.270;2024-01-06T11:08:51;34.33;;;30.60;;
3633;SDS011;1833;42.718;23.270;2024-01-06T11:11:25;35.63;;;32.10;;
3633;SDS011;1833;42.718;23.270;2024-01-06T11:13:53;37.70;;;33.90;;
3633;SDS011;1833;42.718;23.270;2024-01-06T11:16:40;40.33;;;32.50;;
3633;SDS011;1833;42.718;23.270;2024-01-06T11:22:14;37.93;;;33.90;;
3633;SDS011;1833;42.718;23.270;2024-01-06T11:24:52;37.27;;;33.10;;
3633;SDS011;1833;42.718;23.270;2024-01-06T11:27:46;35.77;;;32.20;;
3633;SDS011;1833;42.718;23.270;2024-01-06T11:30:24;35.80;;;32.20;;
3633;SDS011;1833;42.718;23.270;2024-01-06T11:33:11;35.73;;;32.10;;
3633;SDS011;1833;42.718;23.270;2024-01-06T11:36:04;35.67;;;32.00;;
3633;SDS011;1833;42.718;23.270;2024-01-06T12:12:21;42.90;;;38.27;;
3633;SDS011;1833;42.718;23.270;2024-01-06T12:15:09;42.97;;;38.37;;
3633;SDS011;1833;42.718;23.270;2024-01-06T12:17:59;40.17;;;35.50;;
3633;SDS011;1833;42.718;23.270;2024-01-06T12:21:02;37.30;;;33.50;;
3633;SDS011;1833;42.718;23.270;2024-01-06T12:26:08;40.93;;;34.40;;
3633;SDS011;1833;42.718;23.270;2024-01-06T12:49:43;32.60;;;29.23;;
3633;SDS011;1833;42.718;23.270;2024-01-06T12:52:25;34.53;;;31.10;;
3633;SDS011;1833;42.718;23.270;2024-01-06T12:57:29;38.13;;;29.70;;
3633;SDS011;1833;42.718;23.270;2024-01-06T13:00:00;34.20;;;30.83;;
3633;SDS011;1833;42.718;23.270;2024-01-06T13:02:29;34.53;;;31.03;;
3633;SDS011;1833;42.718;23.270;2024-01-06T13:05:07;33.30;;;30.10;;
3633;SDS011;1833;42.718;23.270;2024-01-06T13:07:48;36.50;;;32.63;;
3633;SDS011;1833;42.718;23.270;2024-01-06T13:10:39;34.27;;;30.80;;
3633;SDS011;1833;42.718;23.270;2024-01-06T13:16:09;36.20;;;32.57;;
3633;SDS011;1833;42.718;23.270;2024-01-06T14:07:52;35.90;;;32.20;;
3633;SDS011;1833;42.718;23.270;2024-01-06T14:13:27;35.80;;;32.40;;
3633;SDS011;1833;42.718;23.270;2024-01-06T14:16:19;37.73;;;34.00;;
3633;SDS011;1833;42.718;23.270;2024-01-06T14:21:51;36.90;;;32.40;;
3633;SDS011;1833;42.718;23.270;2024-01-06T14:46:25;36.67;;;33.07;;
3633;SDS011;1833;42.718;23.270;2024-01-06T14:49:12;50.90;;;35.07;;
3633;SDS011;1833;42.718;23.270;2024-01-06T14:51:46;38.83;;;33.30;;
3633;SDS011;1833;42.718;23.270;2024-01-06T14:54:21;37.17;;;33.20;;
3633;SDS011;1833;42.718;23.270;2024-01-06T14:57:14;44.13;;;39.03;;
3633;SDS011;1833;42.718;23.270;2024-01-06T15:18:19;43.97;;;33.80;;
3633;SDS011;1833;42.718;23.270;2024-01-06T15:21:03;40.70;;;35.27;;
3633;SDS011;1833;42.718;23.270;2024-01-06T15:23:32;45.23;;;34.73;;
3633;SDS011;1833;42.718;23.270;2024-01-06T15:25:59;54.33;;;36.27;;
3633;SDS011;1833;42.718;23.270;2024-01-06T15:28:41;45.93;;;36.60;;
3633;SDS011;1833;42.718;23.270;2024-01-06T16:51:55;63.63;;;36.20;;
3633;SDS011;1833;42.718;23.270;2024-01-06T16:57:59;44.30;;;38.00;;
3633;SDS011;1833;42.718;23.270;2024-01-06T17:00:45;41.20;;;36.73;;
3633;SDS011;1833;42.718;23.270;2024-01-06T17:50:23;41.40;;;33.00;;
3633;SDS011;1833;42.718;23.270;2024-01-06T17:52:52;44.67;;;33.87;;
3633;SDS011;1833;42.718;23.270;2024-01-06T17:55:20;35.77;;;32.03;;
3633;SDS011;1833;42.718;23.270;2024-01-06T18:01:10;35.97;;;32.20;;
3633;SDS011;1833;42.718;23.270;2024-01-06T18:03:41;41.70;;;32.60;;
3633;SDS011;1833;42.718;23.270;2024-01-06T18:16:17;42.47;;;32.77;;
3633;SDS011;1833;42.718;23.270;2024-01-06T18:19:14;34.90;;;29.50;;
3633;SDS011;1833;42.718;23.270;2024-01-06T18:25:02;37.13;;;32.80;;
3633;SDS011;1833;42.718;23.270;2024-01-06T18:27:54;40.77;;;32.23;;
3633;SDS011;1833;42.718;23.270;2024-01-06T18:42:08;40.20;;;34.00;;
3633;SDS011;1833;42.718;23.270;2024-01-06T18:44:54;48.47;;;33.10;;
3633;SDS011;1833;42.718;23.270;2024-01-06T18:51:00;38.10;;;32.30;;
3633;SDS011;1833;42.718;23.270;2024-01-06T19:03:08;32.57;;;29.37;;
3633;SDS011;1833;42.718;23.270;2024-01-06T19:08:56;35.40;;;32.10;;
3633;SDS011;1833;42.718;23.270;2024-01-06T19:17:41;32.07;;;28.87;;
3633;SDS011;1833;42.718;23.270;2024-01-06T19:26:45;30.27;;;27.13;;
3633;SDS011;1833;42.718;23.270;2024-01-06T19:29:34;27.67;;;25.30;;
3633;SDS011;1833;42.718;23.270;2024-01-06T19:35:32;31.17;;;28.20;;
3633;SDS011;1833;42.718;23.270;2024-01-06T19:44:22;31.33;;;28.50;;
3633;SDS011;1833;42.718;23.270;2024-01-06T19:50:15;32.07;;;28.73;;
3633;SDS011;1833;42.718;23.270;2024-01-06T19:52:50;30.40;;;27.60;;
3633;SDS011;1833;42.718;23.270;2024-01-06T19:55:21;31.37;;;28.37;;
3633;SDS011;1833;42.718;23.270;2024-01-06T20:08:50;33.50;;;30.17;;
3633;SDS011;1833;42.718;23.270;2024-01-06T20:11:18;36.10;;;30.47;;
3633;SDS011;1833;42.718;23.270;2024-01-06T20:13:46;34.73;;;31.10;;
3633;SDS011;1833;42.718;23.270;2024-01-06T20:16:16;36.10;;;32.20;;
3633;SDS011;1833;42.718;23.270;2024-01-06T20:18:44;45.37;;;33.40;;
3633;SDS011;1833;42.718;23.270;2024-01-06T20:21:13;38.20;;;34.10;;
3633;SDS011;1833;42.718;23.270;2024-01-06T20:23:43;40.03;;;33.50;;
3633;SDS011;1833;42.718;23.270;2024-01-06T20:29:12;38.00;;;33.97;;
3633;SDS011;1833;42.718;23.270;2024-01-06T20:32:02;39.33;;;34.37;;
3633;SDS011;1833;42.718;23.270;2024-01-06T20:34:46;36.30;;;32.50;;
3633;SDS011;1833;42.718;23.270;2024-01-06T20:37:27;43.30;;;33.07;;
3633;SDS011;1833;42.718;23.270;2024-01-06T20:40:13;41.10;;;33.27;;
3633;SDS011;1833;42.718;23.270;2024-01-06T20:43:16;40.00;;;34.97;;
3633;SDS011;1833;42.718;23.270;2024-01-06T20:52:01;69.07;;;43.57;;
3633;SDS011;1833;42.718;23.270;2024-01-06T20:54:55;52.57;;;42.43;;
3633;SDS011;1833;42.718;23.270;2024-01-06T20:57:50;55.43;;;41.63;;
3633;SDS011;1833;42.718;23.270;2024-01-06T21:00:36;51.70;;;40.70;;
3633;SDS011;1833;42.718;23.270;2024-01-06T21:03:30;58.40;;;41.53;;
3633;SDS011;1833;42.718;23.270;2024-01-06T21:06:14;59.53;;;41.90;;
3633;SDS011;1833;42.718;23.270;2024-01-06T21:09:12;62.80;;;43.07;;
3633;SDS011;1833;42.718;23.270;2024-01-06T21:11:42;59.83;;;41.97;;
3633;SDS011;1833;42.718;23.270;2024-01-06T21:17:26;57.17;;;43.40;;
3633;SDS011;1833;42.718;23.270;2024-01-06T21:20:11;70.83;;;42.90;;
3633;SDS011;1833;42.718;23.270;2024-01-06T21:28:02;62.77;;;43.50;;
3633;SDS011;1833;42.718;23.270;2024-01-06T21:30:41;71.10;;;46.90;;
3633;SDS011;1833;42.718;23.270;2024-01-06T21:33:18;71.30;;;48.67;;
3633;SDS011;1833;42.718;23.270;2024-01-06T21:35:59;67.00;;;45.97;;
3633;SDS011;1833;42.718;23.270;2024-01-06T21:38:29;67.60;;;47.53;;
3633;SDS011;1833;42.718;23.270;2024-01-06T21:41:02;63.77;;;44.30;;
3633;SDS011;1833;42.718;23.270;2024-01-06T21:43:43;58.53;;;41.07;;
3633;SDS011;1833;42.718;23.270;2024-01-06T21:46:13;64.13;;;41.33;;
3633;SDS011;1833;42.718;23.270;2024-01-06T21:48:45;54.23;;;40.67;;
3633;SDS011;1833;42.718;23.270;2024-01-06T21:51:28;493.17;;;297.83;;
3633;SDS011;1833;42.718;23.270;2024-01-06T21:54:09;469.80;;;259.87;;
3633;SDS011;1833;42.718;23.270;2024-01-06T21:57:07;320.23;;;177.30;;
3633;SDS011;1833;42.718;23.270;2024-01-06T22:03:09;61.10;;;45.30;;
3633;SDS011;1833;42.718;23.270;2024-01-06T22:05:41;52.20;;;42.57;;
3633;SDS011;1833;42.718;23.270;2024-01-06T22:08:10;52.83;;;39.70;;
3633;SDS011;1833;42.718;23.270;2024-01-06T22:10:41;61.47;;;40.90;;
3633;SDS011;1833;42.718;23.270;2024-01-06T22:13:24;53.73;;;39.00;;
3633;SDS011;1833;42.718;23.270;2024-01-06T22:16:08;52.23;;;40.20;;
3633;SDS011;1833;42.718;23.270;2024-01-06T22:18:50;52.90;;;41.00;;
3633;SDS011;1833;42.718;23.270;2024-01-06T22:21:21;46.40;;;40.67;;
3633;SDS011;1833;42.718;23.270;2024-01-06T22:23:49;54.77;;;40.67;;
3633;SDS011;1833;42.718;23.270;2024-01-06T22:26:22;49.00;;;39.57;;
3633;SDS011;1833;42.718;23.270;2024-01-06T22:28:51;51.20;;;38.80;;
3633;SDS011;1833;42.718;23.270;2024-01-06T22:31:34;49.00;;;39.77;;
3633;SDS011;1833;42.718;23.270;2024-01-06T22:37:09;44.07;;;38.27;;
3633;SDS011;1833;42.718;23.270;2024-01-06T22:39:41;49.77;;;37.00;;
3633;SDS011;1833;42.718;23.270;2024-01-06T22:42:17;48.13;;;38.80;;
3633;SDS011;1833;42.718;23.270;2024-01-06T22:44:55;44.30;;;37.13;;
3633;SDS011;1833;42.718;23.270;2024-01-06T22:47:25;41.87;;;36.80;;
3633;SDS011;1833;42.718;23.270;2024-01-06T22:49:57;45.13;;;37.93;;
3633;SDS011;1833;42.718;23.270;2024-01-06T22:55:42;49.77;;;36.90;;
3633;SDS011;1833;42.718;23.270;2024-01-06T22:58:32;51.67;;;37.83;;
3633;SDS011;1833;42.718;23.270;2024-01-06T23:01:14;56.70;;;43.17;;
3633;SDS011;1833;42.718;23.270;2024-01-06T23:03:44;45.23;;;38.67;;
3633;SDS011;1833;42.718;23.270;2024-01-06T23:06:25;59.63;;;41.90;;
3633;SDS011;1833;42.718;23.270;2024-01-06T23:09:08;60.13;;;42.03;;
3633;SDS011;1833;42.718;23.270;2024-01-06T23:11:45;55.70;;;40.20;;
3633;SDS011;1833;42.718;23.270;2024-01-06T23:14:26;47.47;;;39.90;;
3633;SDS011;1833;42.718;23.270;2024-01-06T23:16:56;53.90;;;38.77;;
3633;SDS011;1833;42.718;23.270;2024-01-06T23:19:28;54.80;;;39.83;;
3633;SDS011;1833;42.718;23.270;2024-01-06T23:21:57;50.50;;;39.90;;
3633;SDS011;1833;42.718;23.270;2024-01-06T23:24:30;55.93;;;41.40;;
3633;SDS011;1833;42.718;23.270;2024-01-06T23:27:03;53.70;;;42.20;;
3633;SDS011;1833;42.718;23.270;2024-01-06T23:29:31;50.67;;;39.67;;
3633;SDS011;1833;42.718;23.270;2024-01-06T23:32:00;45.13;;;40.20;;
3633;SDS011;1833;42.718;23.270;2024-01-06T23:34:29;48.03;;;37.63;;
3633;SDS011;1833;42.718;23.270;2024-01-06T23:37:18;64.97;;;39.10;;
3633;SDS011;1833;42.718;23.270;2024-01-06T23:39:53;49.10;;;36.83;;
3633;SDS011;1833;42.718;23.270;2024-01-06T23:42:33;50.73;;;37.57;;
3633;SDS011;1833;42.718;23.270;2024-01-06T23:45:05;57.57;;;37.07;;
3633;SDS011;1833;42.718;23.270;2024-01-06T23:47:35;52.33;;;37.70;;
3633;SDS011;1833;42.718;23.270;2024-01-06T23:50:21;41.27;;;36.83;;
3633;SDS011;1833;42.718;23.270;2024-01-06T23:52:51;48.97;;;37.63;;
3633;SDS011;1833;42.718;23.270;2024-01-06T23:55:31;45.50;;;38.30;;
3633;SDS011;1833;42.718;23.270;2024-01-06T23:58:11;48.63;;;38.87;;
